Time;durP1;ratioP1;P1;durP2;ratioP2;P2;SDS_P1;SDS_P2;PMS_P1;PMS_P2;Temp;Humidity;BMP_temperature;BMP_pressure;BME280_temperature;BME280_humidity;BME280_pressure;Samples;Min_cycle;Max_cycle;Signal;HPM_P1;HPM_P2
2021/07/28 00:00:15;;;;;;;27.40;13.28;;;;;;;21.69;84.03;99339.42;1824976;78;20870;-74
2021/07/28 00:02:43;;;;;;;22.02;13.13;;;;;;;21.67;85.43;99346.01;1755219;81;21039;-74
2021/07/28 00:05:10;;;;;;;29.23;14.00;;;;;;;21.55;86.22;99324.83;1754724;81;21026;-74
2021/07/28 00:07:37;;;;;;;27.67;13.98;;;;;;;21.44;87.06;99307.23;1824905;78;21961;-75
2021/07/28 00:10:06;;;;;;;29.60;15.10;;;;;;;21.34;88.16;99292.08;1825105;78;21539;-76
2021/07/28 00:12:32;;;;;;;27.37;14.83;;;;;;;21.28;89.26;99287.27;1754866;81;20947;-77
2021/07/28 00:14:59;;;;;;;33.60;15.35;;;;;;;21.26;91.23;99284.87;1754729;81;20897;-76
2021/07/28 00:17:27;;;;;;;28.62;15.68;;;;;;;21.22;92.36;99280.46;1755159;81;21396;-76
2021/07/28 00:19:59;;;;;;;26.27;14.80;;;;;;;21.17;93.43;99280.81;1755346;81;21832;-77
2021/07/28 00:25:09;;;;;;;28.35;16.80;;;;;;;20.96;94.88;99308.83;1755041;81;20897;-77
2021/07/28 00:27:36;;;;;;;28.92;15.95;;;;;;;20.92;95.88;99291.27;1825608;78;20951;-77
2021/07/28 00:30:09;;;;;;;28.50;16.95;;;;;;;20.87;96.51;99288.84;1759994;81;21028;-76
2021/07/28 00:32:35;;;;;;;29.18;16.93;;;;;;;20.79;97.03;99291.42;1765320;81;21130;-76
2021/07/28 00:35:03;;;;;;;28.60;14.15;;;;;;;20.74;97.19;99282.83;1765462;81;21002;-75
2021/07/28 00:37:31;;;;;;;31.48;14.90;;;;;;;20.73;96.31;99272.86;1765410;81;20897;-76
2021/07/28 00:39:57;;;;;;;30.30;14.63;;;;;;;20.73;95.08;99268.68;1765223;81;20861;-76
2021/07/28 00:42:24;;;;;;;28.20;14.78;;;;;;;20.76;94.95;99257.34;1832863;77;21496;-76
2021/07/28 00:44:50;;;;;;;20.32;13.55;;;;;;;20.77;94.21;99264.52;1830786;78;20994;-74
2021/07/28 00:47:17;;;;;;;19.98;11.70;;;;;;;20.78;93.15;99274.48;1831776;77;21393;-75
2021/07/28 00:49:44;;;;;;;20.77;11.08;;;;;;;20.80;92.90;99254.56;1832277;78;20964;-74
2021/07/28 00:52:11;;;;;;;19.65;10.28;;;;;;;20.81;91.96;99251.36;1832237;78;20846;-74
2021/07/28 00:54:39;;;;;;;16.07;9.85;;;;;;;20.82;91.50;99254.94;1832350;78;20897;-74
2021/07/28 00:57:08;;;;;;;15.55;7.92;;;;;;;20.82;91.08;99245.18;1832181;77;21145;-75
2021/07/28 00:59:35;;;;;;;14.73;7.62;;;;;;;20.78;89.60;99236.03;1821026;77;20973;-74
2021/07/28 01:02:02;;;;;;;16.95;6.65;;;;;;;20.78;85.49;99246.59;1822052;77;21475;-74
2021/07/28 01:04:29;;;;;;;15.28;5.55;;;;;;;20.87;82.02;99252.58;1852831;77;20963;-74
2021/07/28 01:06:59;;;;;;;13.90;5.55;;;;;;;21.00;80.04;99251.05;1853915;77;20856;-75
2021/07/28 01:09:28;;;;;;;16.15;6.20;;;;;;;21.13;78.26;99240.33;1854944;77;21110;-73
2021/07/28 01:11:57;;;;;;;17.60;6.10;;;;;;;21.26;76.51;99236.61;1836923;77;20956;-74
2021/07/28 01:14:25;;;;;;;15.85;6.53;;;;;;;21.37;75.94;99232.63;1815173;79;20951;-74
2021/07/28 01:16:52;;;;;;;13.50;5.55;;;;;;;21.44;74.89;99229.05;1813206;78;21451;-73
2021/07/28 01:19:20;;;;;;;23.98;5.87;;;;;;;21.50;76.24;99231.66;1736439;82;21537;-73
2021/07/28 01:21:48;;;;;;;21.10;6.10;;;;;;;21.52;74.89;99232.66;1799622;79;21101;-73
2021/07/28 01:24:15;;;;;;;14.63;5.90;;;;;;;21.54;74.41;99229.66;1788406;79;21467;-73
2021/07/28 01:26:43;;;;;;;16.45;6.12;;;;;;;21.55;77.18;99227.67;1789134;79;21010;-73
2021/07/28 01:29:11;;;;;;;22.48;6.55;;;;;;;21.45;79.24;99233.44;1791862;79;20880;-72
2021/07/28 01:31:41;;;;;;;16.62;5.58;;;;;;;21.29;78.46;99241.41;1803662;79;20896;-74
2021/07/28 01:34:09;;;;;;;18.05;5.80;;;;;;;21.26;77.11;99249.17;1785410;79;21081;-73
2021/07/28 01:36:36;;;;;;;18.27;7.05;;;;;;;21.31;76.96;99246.80;1786913;80;20888;-74
2021/07/28 01:39:08;;;;;;;19.27;6.50;;;;;;;21.35;77.12;99253.19;1786774;80;20986;-73
2021/07/28 01:41:34;;;;;;;;;;;;;;;21.39;77.30;99256.77;1789715;80;20908;-73
2021/07/28 01:44:01;;;;;;;16.52;6.12;;;;;;;21.40;77.62;99258.36;1786658;79;20131;-73
2021/07/28 01:46:27;;;;;;;19.02;6.17;;;;;;;21.41;78.23;99252.17;1786797;79;21034;-74
2021/07/28 01:48:53;;;;;;;19.12;6.35;;;;;;;21.41;78.34;99256.36;1813989;77;20936;-73
2021/07/28 01:51:20;;;;;;;22.82;6.47;;;;;;;21.41;78.58;99254.37;1794817;79;21483;-73
2021/07/28 01:53:47;;;;;;;23.22;7.55;;;;;;;21.43;79.06;99258.16;1782518;79;20944;-72
2021/07/28 01:56:14;;;;;;;21.30;6.90;;;;;;;21.43;79.56;99247.00;1797171;79;21510;-73
2021/07/28 01:58:45;;;;;;;16.80;6.90;;;;;;;21.41;80.41;99254.97;1801812;79;21124;-75
2021/07/28 02:01:09;;;;;;;15.08;6.72;;;;;;;21.40;80.84;99262.55;1786068;80;20875;-74
2021/07/28 02:03:36;;;;;;;18.98;7.05;;;;;;;21.37;81.37;99260.55;1786656;80;20955;-75
2021/07/28 02:06:03;;;;;;;14.68;6.72;;;;;;;21.35;82.00;99249.59;1786448;80;20912;-75
2021/07/28 02:08:30;;;;;;;19.30;7.60;;;;;;;21.32;82.80;99229.45;1727521;80;20844;-74
2021/07/28 02:10:59;;;;;;;15.68;7.40;;;;;;;21.27;83.36;99228.44;1786554;80;21522;-77
2021/07/28 02:13:25;;;;;;;14.45;7.72;;;;;;;21.24;84.40;99233.41;1794532;78;20895;-73
2021/07/28 02:15:52;;;;;;;15.25;8.20;;;;;;;21.18;85.32;99241.34;1795076;80;20910;-72
2021/07/28 02:18:19;;;;;;;15.43;8.68;;;;;;;21.13;86.03;99235.34;1795123;80;20900;-75
2021/07/28 02:20:46;;;;;;;18.85;8.38;;;;;;;21.09;86.29;99229.75;1795230;80;21473;-75
2021/07/28 02:23:12;;;;;;;21.77;8.58;;;;;;;21.05;86.93;99220.56;1795027;80;21079;-75
2021/07/28 02:25:39;;;;;;;14.85;7.53;;;;;;;21.01;87.20;99232.31;1795074;80;20959;-74
2021/07/28 02:28:06;;;;;;;21.87;8.43;;;;;;;20.95;87.55;99236.08;1795007;80;20958;-72
2021/07/28 02:30:33;;;;;;;21.02;8.48;;;;;;;20.92;88.13;99232.67;1794974;80;20963;-72
2021/07/28 02:32:59;;;;;;;17.35;8.20;;;;;;;20.90;88.61;99232.27;1795258;80;20899;-74
2021/07/28 02:35:27;;;;;;;14.15;7.85;;;;;;;20.86;89.25;99228.66;1795253;80;21120;-74
2021/07/28 02:37:54;;;;;;;13.48;7.25;;;;;;;20.82;89.65;99234.82;1795045;80;20915;-72
2021/07/28 02:40:22;;;;;;;18.25;8.08;;;;;;;20.78;90.09;99238.22;1795094;80;21907;-73
2021/07/28 02:42:49;;;;;;;19.37;8.08;;;;;;;20.71;90.49;99243.77;1794885;80;20967;-74
2021/07/28 02:45:16;;;;;;;16.40;8.75;;;;;;;20.63;91.36;99247.11;1795265;80;21489;-75
2021/07/28 02:47:44;;;;;;;14.13;7.53;;;;;;;20.57;92.06;99248.66;1801776;78;21435;-75
2021/07/28 02:50:12;;;;;;;14.55;7.75;;;;;;;20.53;92.89;99241.47;1797833;78;20828;-75
2021/07/28 02:52:40;;;;;;;14.73;7.60;;;;;;;20.48;93.63;99237.06;1808834;78;21471;-76
2021/07/28 02:55:10;;;;;;;15.48;8.30;;;;;;;20.44;94.14;99237.04;1779347;80;20943;-76
2021/07/28 02:57:37;;;;;;;19.98;9.80;;;;;;;20.39;94.86;99236.01;1763681;80;20994;-76
2021/07/28 03:00:06;;;;;;;21.55;9.75;;;;;;;20.38;95.44;99239.19;1763626;81;21222;-76
2021/07/28 03:02:32;;;;;;;18.50;9.08;;;;;;;20.38;95.71;99237.20;1763873;81;22305;-74
2021/07/28 03:05:00;;;;;;;16.67;8.35;;;;;;;20.40;96.14;99232.63;1763680;81;21015;-75
2021/07/28 03:07:27;;;;;;;16.93;8.78;;;;;;;20.43;96.34;99229.86;1763578;81;21034;-76
2021/07/28 03:09:54;;;;;;;15.18;8.43;;;;;;;20.49;95.95;99233.08;1764034;81;21485;-77
2021/07/28 03:12:20;;;;;;;12.13;8.20;;;;;;;20.59;95.24;99230.16;1763649;79;23230;-76
2021/07/28 03:14:47;;;;;;;12.75;8.43;;;;;;;20.67;94.56;99243.74;1763655;81;21213;-80
2021/07/28 03:17:16;;;;;;;12.98;8.70;;;;;;;20.75;94.16;99248.17;1763793;81;20982;-78
2021/07/28 03:19:43;;;;;;;16.77;8.15;;;;;;;20.82;94.26;99245.18;1763582;81;21541;-76
2021/07/28 03:22:10;;;;;;;17.62;8.83;;;;;;;20.87;93.88;99242.81;1763620;81;20958;-76
2021/07/28 03:24:37;;;;;;;15.05;8.00;;;;;;;20.91;93.33;99245.63;1763401;81;21139;-76
2021/07/28 03:27:05;;;;;;;15.15;8.55;;;;;;;20.93;93.37;99244.03;1763801;80;21537;-76
2021/07/28 03:29:31;;;;;;;12.63;8.73;;;;;;;20.95;92.93;99248.63;1763803;81;21499;-77
2021/07/28 03:31:58;;;;;;;18.15;9.03;;;;;;;20.98;92.61;99252.03;1763747;81;20958;-77
2021/07/28 03:34:25;;;;;;;22.77;9.48;;;;;;;21.00;92.38;99255.23;1764086;81;22200;-80
2021/07/28 03:36:52;;;;;;;17.82;9.28;;;;;;;21.02;92.03;99257.03;1763922;81;21202;-78
2021/07/28 03:39:19;;;;;;;17.25;9.50;;;;;;;21.05;91.89;99261.83;1763678;81;21556;-77
2021/07/28 03:41:45;;;;;;;20.92;9.55;;;;;;;21.08;91.73;99264.43;1763857;81;21537;-79
2021/07/28 03:44:12;;;;;;;19.52;9.45;;;;;;;21.09;91.46;99261.84;1763468;81;21061;-79
2021/07/28 03:46:39;;;;;;;14.60;9.10;;;;;;;21.12;91.73;99265.84;1763731;81;21080;-75
2021/07/28 03:49:07;;;;;;;17.05;9.15;;;;;;;21.11;91.81;99259.45;1763848;81;21132;-78
2021/07/28 03:51:33;;;;;;;17.20;9.18;;;;;;;21.12;92.32;99262.45;1762024;80;20903;-77
2021/07/28 03:54:00;;;;;;;17.50;9.68;;;;;;;21.12;93.01;99263.05;1750365;81;21625;-76
2021/07/28 03:56:27;;;;;;;18.57;9.13;;;;;;;21.12;93.11;99260.26;1750577;82;21034;-76
2021/07/28 03:58:56;;;;;;;17.67;10.75;;;;;;;21.13;93.39;99264.05;1750598;82;20983;-77
2021/07/28 04:01:22;;;;;;;14.13;9.30;;;;;;;21.17;93.96;99273.83;1750754;82;21167;-78
2021/07/28 04:03:52;;;;;;;15.70;8.63;;;;;;;21.18;94.53;99274.84;1750599;82;20868;-77
2021/07/28 04:06:19;;;;;;;16.60;9.70;;;;;;;21.19;94.14;99277.83;1750303;82;21033;-78
2021/07/28 04:08:46;;;;;;;12.00;8.80;;;;;;;21.19;94.43;99283.41;1750716;82;21066;-78
2021/07/28 04:11:13;;;;;;;18.75;9.08;;;;;;;21.20;95.06;99277.23;1750318;82;21371;-76
2021/07/28 04:13:39;;;;;;;21.57;9.43;;;;;;;21.22;95.84;99276.28;1763558;81;21917;-78
2021/07/28 04:16:06;;;;;;;13.60;10.10;;;;;;;21.25;96.07;99268.52;1767733;81;21027;-77
2021/07/28 04:18:32;;;;;;;15.15;9.35;;;;;;;21.30;96.42;99273.12;1766934;81;20970;-77
2021/07/28 04:20:59;;;;;;;20.45;9.70;;;;;;;21.36;96.12;99273.53;1766791;81;20982;-76
2021/07/28 04:23:26;;;;;;;18.20;9.78;;;;;;;21.47;95.67;99275.73;1766850;81;20994;-75
2021/07/28 04:25:52;;;;;;;20.57;9.70;;;;;;;21.57;95.24;99269.37;1767813;81;21105;-74
2021/07/28 04:28:19;;;;;;;15.28;10.55;;;;;;;21.68;94.63;99274.38;1820223;77;20986;-75
2021/07/28 04:30:45;;;;;;;11.95;9.50;;;;;;;21.74;93.78;99274.78;1807529;78;20967;-76
2021/07/28 04:33:12;;;;;;;18.87;10.03;;;;;;;21.82;93.87;99268.61;1807257;79;20877;-76
2021/07/28 04:35:39;;;;;;;14.30;9.58;;;;;;;21.90;93.22;99267.42;1807305;79;21472;-77
2021/07/28 04:38:06;;;;;;;22.55;10.95;;;;;;;22.01;92.35;99272.39;1807337;79;21037;-78
2021/07/28 04:40:32;;;;;;;17.52;10.32;;;;;;;22.08;91.02;99271.82;1807151;79;20858;-77
2021/07/28 04:42:59;;;;;;;15.13;9.68;;;;;;;22.16;90.92;99275.41;1807423;79;20979;-77
2021/07/28 04:45:25;;;;;;;17.17;9.58;;;;;;;22.24;90.33;99274.81;1807373;79;20965;-77
2021/07/28 04:47:52;;;;;;;17.40;10.08;;;;;;;22.30;89.42;99282.40;1807234;78;20857;-73
2021/07/28 04:50:19;;;;;;;17.95;10.03;;;;;;;22.35;88.71;99277.80;1807543;79;21088;-76
2021/07/28 04:52:45;;;;;;;14.98;9.35;;;;;;;22.39;88.55;99284.19;1807378;79;20959;-77
2021/07/28 04:55:14;;;;;;;15.80;9.93;;;;;;;22.45;88.47;99286.58;1796589;79;21428;-77
2021/07/28 04:57:40;;;;;;;16.67;10.18;;;;;;;22.51;88.71;99280.78;1807333;79;21020;-77
2021/07/28 05:00:09;;;;;;;17.60;10.20;;;;;;;22.59;88.48;99278.14;1807476;79;21510;-77
2021/07/28 05:02:35;;;;;;;15.35;9.90;;;;;;;22.67;88.45;99272.13;1807043;79;21787;-78
2021/07/28 05:05:04;;;;;;;16.97;9.63;;;;;;;22.77;88.06;99274.70;1807348;79;20925;-77
2021/07/28 05:07:31;;;;;;;23.30;9.33;;;;;;;22.86;87.76;99279.91;1807280;79;20960;-77
2021/07/28 05:09:59;;;;;;;17.05;8.95;;;;;;;22.97;86.54;99280.06;1807211;78;20890;-79
2021/07/28 05:12:26;;;;;;;21.57;9.93;;;;;;;23.02;85.36;99274.65;1806842;79;20960;-76
2021/07/28 05:14:55;;;;;;;17.70;9.65;;;;;;;23.08;85.78;99272.23;1804752;79;21493;-77
2021/07/28 05:17:23;;;;;;;22.98;9.58;;;;;;;23.15;84.78;99266.57;1804712;78;20865;-78
2021/07/28 05:19:50;;;;;;;14.55;9.38;;;;;;;23.21;85.08;99264.94;1804768;79;20968;-78
2021/07/28 05:22:17;;;;;;;16.15;9.63;;;;;;;23.30;84.20;99262.50;1803598;78;21008;-73
2021/07/28 05:24:44;;;;;;;13.78;10.18;;;;;;;23.37;84.44;99263.26;1840242;77;20959;-76
2021/07/28 05:27:10;;;;;;;19.02;10.85;;;;;;;23.45;83.67;99268.83;1804566;79;21183;-75
2021/07/28 05:29:37;;;;;;;18.60;11.12;;;;;;;23.50;82.20;99259.98;1841929;77;20951;-76
2021/07/28 05:32:05;;;;;;;22.90;10.93;;;;;;;23.56;81.44;99266.19;1804957;79;21550;-76
2021/07/28 05:34:31;;;;;;;18.05;9.93;;;;;;;23.65;80.32;99257.33;1842050;77;21423;-76
2021/07/28 05:36:58;;;;;;;17.50;10.90;;;;;;;23.72;79.22;99255.84;1842141;77;20940;-76
2021/07/28 05:39:25;;;;;;;26.05;10.98;;;;;;;23.77;79.83;99262.42;1804757;79;21863;-81
2021/07/28 05:41:52;;;;;;;19.65;11.73;;;;;;;23.84;78.51;99260.17;1773376;79;20954;-77
2021/07/28 05:44:18;;;;;;;19.73;11.73;;;;;;;23.85;77.79;99260.36;1776599;80;20994;-79
2021/07/28 05:46:45;;;;;;;21.42;12.65;;;;;;;23.87;78.33;99263.55;1791769;80;20992;-77
2021/07/28 05:49:11;;;;;;;21.30;11.57;;;;;;;23.89;78.17;99265.34;1791736;80;20860;-83
2021/07/28 05:51:38;;;;;;;17.67;11.43;;;;;;;23.95;78.54;99270.09;1762396;80;21443;-79
2021/07/28 05:54:06;;;;;;;21.07;11.05;;;;;;;24.02;77.94;99270.64;1760352;81;20883;-77
2021/07/28 05:56:33;;;;;;;18.73;10.90;;;;;;;24.05;77.91;99260.00;1760217;81;21046;-78
2021/07/28 05:58:59;;;;;;;17.98;11.10;;;;;;;24.11;77.63;99254.14;1760479;81;21085;-78
2021/07/28 06:01:28;;;;;;;18.15;11.12;;;;;;;24.17;77.47;99256.70;1760140;81;20952;-78
2021/07/28 06:03:54;;;;;;;20.15;11.28;;;;;;;24.25;76.48;99254.63;1760411;81;21789;-78
2021/07/28 06:06:21;;;;;;;18.52;10.85;;;;;;;24.33;75.09;99252.74;1760288;81;20930;-77
2021/07/28 06:08:48;;;;;;;21.77;10.38;;;;;;;24.41;76.78;99240.05;1760552;81;21038;-77
2021/07/28 06:11:14;;;;;;;20.72;9.75;;;;;;;24.50;75.43;99246.77;1767733;80;21019;-77
2021/07/28 06:13:42;;;;;;;15.93;9.65;;;;;;;24.57;74.31;99248.70;1768777;80;21005;-76
2021/07/28 06:16:09;;;;;;;15.68;10.23;;;;;;;24.60;73.83;99242.25;1757873;81;21122;-78
2021/07/28 06:18:36;;;;;;;21.87;10.25;;;;;;;24.66;73.67;99242.78;1768538;80;20998;-77
2021/07/28 06:21:03;;;;;;;20.00;10.32;;;;;;;24.74;72.64;99235.69;1768540;80;20931;-77
2021/07/28 06:23:29;;;;;;;22.90;9.90;;;;;;;24.79;73.18;99238.04;1768769;80;20991;-78
2021/07/28 06:25:58;;;;;;;14.15;9.75;;;;;;;24.87;73.26;99232.50;1765959;81;21064;-77
2021/07/28 06:28:26;;;;;;;18.90;9.40;;;;;;;25.00;74.13;99233.57;1765983;81;21505;-76
2021/07/28 06:30:53;;;;;;;20.75;9.55;;;;;;;25.14;72.90;99236.81;1765819;81;21494;-77
2021/07/28 06:33:21;;;;;;;14.05;9.58;;;;;;;25.19;71.90;99238.55;1766089;81;20891;-77
2021/07/28 06:35:51;;;;;;;15.80;9.43;;;;;;;25.24;71.27;99237.27;1766205;81;21399;-77
2021/07/28 06:38:19;;;;;;;27.42;9.35;;;;;;;25.25;71.13;99235.45;1766125;81;20955;-76
2021/07/28 06:40:46;;;;;;;15.25;10.20;;;;;;;25.27;71.29;99240.03;1766043;81;21113;-77
2021/07/28 06:43:14;;;;;;;18.62;10.30;;;;;;;25.34;71.65;99232.13;1765972;80;21045;-77
2021/07/28 06:45:40;;;;;;;24.52;10.93;;;;;;;25.41;70.95;99230.61;1766073;81;20848;-77
2021/07/28 06:48:07;;;;;;;16.95;10.03;;;;;;;25.49;70.55;99232.08;1778040;78;20975;-79
2021/07/28 06:50:33;;;;;;;16.30;9.55;;;;;;;25.56;70.84;99232.58;1788053;79;20970;-78
2021/07/28 06:53:00;;;;;;;17.70;9.58;;;;;;;25.62;70.93;99235.90;1797534;79;21106;-77
2021/07/28 06:55:28;;;;;;;13.38;9.60;;;;;;;25.73;71.05;99242.79;1797507;79;20943;-77
2021/07/28 06:57:55;;;;;;;18.32;9.78;;;;;;;25.84;70.45;99243.42;1772642;79;20935;-77
2021/07/28 07:00:22;;;;;;;12.37;9.10;;;;;;;25.94;71.24;99249.48;1788208;79;20923;-77
2021/07/28 07:02:48;;;;;;;17.45;8.83;;;;;;;26.09;72.30;99250.02;1766132;81;21448;-78
2021/07/28 07:05:15;;;;;;;18.32;9.20;;;;;;;26.24;69.28;99247.76;1766391;81;21099;-75
2021/07/28 07:07:41;;;;;;;14.78;8.88;;;;;;;26.34;69.01;99247.42;1766667;81;20946;-77
2021/07/28 07:10:10;;;;;;;17.15;8.80;;;;;;;26.42;67.83;99244.05;1766428;81;20975;-77
2021/07/28 07:12:37;;;;;;;14.35;8.03;;;;;;;26.46;66.23;99248.20;1766220;81;21030;-71
2021/07/28 07:15:07;;;;;;;13.72;8.15;;;;;;;26.48;67.37;99252.79;1796448;79;20981;-72
2021/07/28 07:17:33;;;;;;;15.83;8.05;;;;;;;26.60;67.29;99254.95;1797793;79;21137;-69
2021/07/28 07:20:00;;;;;;;15.68;8.58;;;;;;;26.74;66.41;99258.91;1797730;79;20874;-69
2021/07/28 07:22:26;;;;;;;12.90;8.05;;;;;;;26.86;65.23;99265.30;1801459;78;20867;-69
2021/07/28 07:24:53;;;;;;;16.55;7.80;;;;;;;26.93;64.71;99264.37;1830554;77;20949;-72
2021/07/28 07:27:19;;;;;;;16.30;7.95;;;;;;;26.99;65.82;99258.44;1831427;78;20909;-70
2021/07/28 07:29:48;;;;;;;22.50;8.38;;;;;;;27.07;63.57;99261.91;1831175;78;22273;-70
2021/07/28 07:32:23;;;;;;;13.50;7.58;;;;;;;27.17;64.58;99262.27;1831088;77;20964;-68
2021/07/28 07:34:50;;;;;;;11.60;7.50;;;;;;;27.29;62.70;99261.61;1830912;78;21512;-68
2021/07/28 07:37:17;;;;;;;11.73;7.40;;;;;;;27.34;63.03;99265.33;1807592;78;21514;-66
2021/07/28 07:39:44;;;;;;;18.95;7.97;;;;;;;27.42;61.98;99261.12;1798044;79;20923;-69
2021/07/28 07:42:11;;;;;;;18.98;8.18;;;;;;;27.45;61.91;99262.27;1797964;79;21159;-68
2021/07/28 07:44:38;;;;;;;18.05;7.75;;;;;;;27.58;62.93;99264.59;1802270;78;20972;-68
2021/07/28 07:47:05;;;;;;;13.43;8.40;;;;;;;27.79;63.60;99273.18;1821162;77;20943;-71
2021/07/28 07:49:31;;;;;;;14.68;8.10;;;;;;;27.99;63.27;99270.29;1763919;80;21510;-71
2021/07/28 07:51:58;;;;;;;14.50;7.75;;;;;;;28.18;62.33;99275.84;1760957;81;20949;-67
2021/07/28 07:54:26;;;;;;;10.82;7.53;;;;;;;28.26;60.52;99272.27;1785520;80;21134;-66
2021/07/28 07:56:53;;;;;;;13.15;9.08;;;;;;;28.23;60.14;99267.50;1791438;80;21462;-74
2021/07/28 07:59:20;;;;;;;16.23;8.60;;;;;;;28.20;59.19;99273.38;1791469;80;20927;-73
2021/07/28 08:01:46;;;;;;;15.58;8.58;;;;;;;28.23;59.57;99269.70;1791381;80;21426;-74
2021/07/28 08:04:14;;;;;;;14.15;8.13;;;;;;;28.27;59.98;99278.08;1791276;80;20966;-75
2021/07/28 08:06:40;;;;;;;15.50;8.10;;;;;;;28.33;60.17;99276.91;1791291;80;21119;-75
2021/07/28 08:09:08;;;;;;;16.90;8.48;;;;;;;28.41;60.58;99272.66;1774122;80;21569;-74
2021/07/28 08:11:36;;;;;;;14.10;7.83;;;;;;;28.53;60.33;99276.97;1791731;79;20951;-71
2021/07/28 08:14:04;;;;;;;12.28;7.45;;;;;;;28.76;59.24;99268.09;1791437;78;21070;-71
2021/07/28 08:16:30;;;;;;;18.37;7.60;;;;;;;29.02;57.45;99276.84;1791943;78;21027;-69
2021/07/28 08:18:58;;;;;;;13.60;7.92;;;;;;;29.29;56.53;99277.09;1791591;80;21136;-69
2021/07/28 08:21:24;;;;;;;17.15;8.23;;;;;;;29.49;56.56;99276.28;1791860;79;20959;-70
2021/07/28 08:23:52;;;;;;;14.68;7.62;;;;;;;29.71;56.41;99277.20;1795239;78;20880;-69
2021/07/28 08:26:18;;;;;;;16.55;7.42;;;;;;;29.97;54.75;99271.55;1772505;80;21050;-71
2021/07/28 08:28:45;;;;;;;16.90;7.87;;;;;;;30.21;54.32;99277.80;1770503;80;20994;-72
2021/07/28 08:31:12;;;;;;;12.33;7.17;;;;;;;30.49;53.00;99273.83;1760814;81;20963;-71
2021/07/28 08:33:38;;;;;;;13.13;7.47;;;;;;;30.70;51.68;99275.92;1751350;80;21452;-71
2021/07/28 08:36:05;;;;;;;14.07;6.92;;;;;;;30.85;51.00;99273.38;1736737;81;21507;-69
2021/07/28 08:38:32;;;;;;;10.90;6.85;;;;;;;30.88;50.91;99270.41;1737991;81;20933;-69
2021/07/28 08:41:00;;;;;;;16.80;7.80;;;;;;;30.95;51.58;99271.40;1769264;81;20948;-78
2021/07/28 08:43:31;;;;;;;14.50;7.50;;;;;;;31.10;50.45;99268.20;1769419;81;21142;-72
2021/07/28 08:46:01;;;;;;;16.05;7.10;;;;;;;31.14;49.71;99273.94;1769929;81;20941;-73
2021/07/28 08:48:30;;;;;;;13.85;7.03;;;;;;;31.28;50.32;99266.91;1769665;81;20956;-71
2021/07/28 08:51:01;;;;;;;13.13;6.90;;;;;;;31.56;48.40;99269.91;1769585;81;20963;-72
2021/07/28 08:53:29;;;;;;;17.95;7.40;;;;;;;31.69;47.20;99263.53;1769599;81;20947;-69
2021/07/28 08:55:57;;;;;;;14.07;7.10;;;;;;;31.67;47.27;99264.60;1768908;81;21259;-75
2021/07/28 08:58:25;;;;;;;12.18;6.90;;;;;;;31.78;47.95;99264.97;1769703;81;21027;-71
2021/07/28 09:00:52;;;;;;;12.78;6.72;;;;;;;31.89;48.29;99260.28;1768914;81;21012;-72
2021/07/28 09:03:19;;;;;;;15.90;7.28;;;;;;;31.97;47.53;99263.78;1769154;81;21413;-73
2021/07/28 09:05:48;;;;;;;15.75;7.15;;;;;;;32.14;48.12;99265.09;1769499;81;20995;-70
2021/07/28 09:08:27;;;;;;;14.33;6.95;;;;;;;32.38;47.12;99260.25;1749760;81;21526;-71
2021/07/28 09:10:57;;;;;;;18.62;7.87;;;;;;;32.52;46.35;99255.38;1754457;81;21091;-72
2021/07/28 09:13:39;;;;;;;13.53;6.25;;;;;;;32.63;45.77;99254.91;1798837;78;21516;-72
2021/07/28 09:16:09;;;;;;;11.22;6.67;;;;;;;32.86;44.59;99263.47;1797735;79;21036;-69
2021/07/28 09:18:41;;;;;;;15.93;6.97;;;;;;;32.91;44.51;99261.42;1775918;79;21051;-70
2021/07/28 09:21:27;;;;;;;14.80;6.53;;;;;;;32.83;44.34;99260.16;1798148;79;22025;-74
2021/07/28 09:24:12;;;;;;;12.98;7.25;;;;;;;32.67;46.59;99262.02;1821895;78;20934;-74
2021/07/28 09:26:50;;;;;;;10.15;6.22;;;;;;;32.82;46.61;99262.21;1830037;78;21500;-72
2021/07/28 09:29:21;;;;;;;11.83;6.45;;;;;;;32.97;45.74;99259.48;1831141;78;21608;-78
2021/07/28 09:31:53;;;;;;;13.30;6.63;;;;;;;32.92;44.24;99258.09;1831300;78;21446;-77
2021/07/28 09:34:25;;;;;;;17.60;7.62;;;;;;;33.05;45.44;99253.64;1831438;77;21880;-76
2021/07/28 09:36:58;;;;;;;13.83;6.60;;;;;;;33.22;44.15;99254.87;1831295;78;20918;-75
2021/07/28 09:39:28;;;;;;;12.73;6.35;;;;;;;33.11;44.09;99251.09;1831502;78;20972;-77
2021/07/28 09:41:58;;;;;;;10.93;6.55;;;;;;;32.94;43.33;99247.64;1831137;77;20973;-81
2021/07/28 09:44:30;;;;;;;12.90;6.37;;;;;;;32.97;43.99;99243.85;1830328;78;20894;-77
2021/07/28 09:47:13;;;;;;;12.63;6.83;;;;;;;33.09;44.87;99239.41;1831581;78;21079;-76
2021/07/28 09:49:43;;;;;;;15.83;7.47;;;;;;;33.21;44.67;99242.55;1831510;78;20916;-82
2021/07/28 09:52:29;;;;;;;18.50;7.72;;;;;;;33.19;44.26;99240.19;1831164;78;20925;-77
2021/07/28 09:54:57;;;;;;;17.90;7.62;;;;;;;33.14;44.17;99243.03;1831350;78;20941;-77
2021/07/28 09:57:26;;;;;;;21.37;7.87;;;;;;;33.18;44.36;99237.19;1830898;77;20921;-77
2021/07/28 10:00:00;;;;;;;13.88;7.97;;;;;;;33.39;45.17;99237.63;1831170;78;21801;-76
2021/07/28 10:02:26;;;;;;;12.10;7.05;;;;;;;33.78;43.91;99230.66;1830698;78;20976;-76
2021/07/28 10:04:54;;;;;;;16.52;7.00;;;;;;;34.06;42.90;99231.34;1831704;78;21019;-77
2021/07/28 10:07:22;;;;;;;13.75;6.75;;;;;;;34.06;42.28;99220.73;1833679;78;20995;-76
2021/07/28 10:10:01;;;;;;;23.22;12.80;;;;;;;34.04;43.14;99216.16;1836952;78;21522;-77
2021/07/28 10:12:28;;;;;;;13.40;8.13;;;;;;;33.96;42.43;99221.27;1836846;78;21176;-76
2021/07/28 10:14:57;;;;;;;13.78;6.85;;;;;;;33.56;42.58;99223.80;1829619;78;20877;-76
2021/07/28 10:17:24;;;;;;;29.27;14.98;;;;;;;33.32;43.34;99228.02;1811415;78;21036;-76
2021/07/28 10:19:51;;;;;;;17.25;9.40;;;;;;;33.04;43.52;99227.26;1755553;81;21002;-76
2021/07/28 10:22:18;;;;;;;47.60;26.27;;;;;;;32.85;43.69;99224.94;1794746;78;20996;-77
2021/07/28 10:24:48;;;;;;;22.85;13.48;;;;;;;32.79;44.30;99216.26;1826243;78;21043;-77
2021/07/28 10:27:15;;;;;;;36.95;23.92;;;;;;;32.96;45.27;99220.32;1825676;78;20952;-74
2021/07/28 10:29:42;;;;;;;24.67;15.95;;;;;;;33.27;43.67;99219.31;1826137;78;20873;-76
2021/07/28 10:32:08;;;;;;;18.70;8.65;;;;;;;33.51;43.10;99223.69;1803152;78;20932;-76
2021/07/28 10:34:36;;;;;;;21.52;11.35;;;;;;;33.74;41.66;99214.39;1826374;78;21023;-78
2021/07/28 10:37:10;;;;;;;20.05;12.23;;;;;;;33.90;42.36;99216.87;1827383;78;21127;-77
2021/07/28 10:39:47;;;;;;;12.70;8.78;;;;;;;34.05;40.90;99202.07;1826458;78;20905;-77
2021/07/28 10:42:34;;;;;;;14.55;8.83;;;;;;;34.11;40.77;99203.59;1825979;78;20928;-76
2021/07/28 10:45:06;;;;;;;30.02;18.15;;;;;;;34.18;40.87;99204.65;1826235;78;20929;-76
2021/07/28 10:47:40;;;;;;;13.40;10.43;;;;;;;34.33;40.54;99204.73;1825699;78;36114;-79
2021/07/28 10:50:22;;;;;;;15.68;6.85;;;;;;;34.44;41.12;99196.42;1816006;78;21146;-76
2021/07/28 10:52:53;;;;;;;12.95;6.53;;;;;;;34.54;41.02;99199.98;1804780;78;21503;-76
2021/07/28 10:55:34;;;;;;;;;;;;;;;34.56;39.00;99195.38;1809171;78;21002;-77
2021/07/28 10:58:12;;;;;;;16.60;7.55;;;;;;;34.40;40.10;99191.55;1797743;77;20179;-76
2021/07/28 11:00:48;;;;;;;11.63;6.35;;;;;;;34.41;41.46;99193.12;1794015;78;20963;-79
2021/07/28 11:03:20;;;;;;;11.63;6.42;;;;;;;34.42;39.46;99186.94;1793463;80;22035;-79
2021/07/28 11:05:53;;;;;;;14.30;7.08;;;;;;;34.27;39.96;99198.10;1804430;78;20873;-77
2021/07/28 11:08:22;;;;;;;10.40;6.78;;;;;;;34.17;41.00;99195.16;1767768;79;20964;-77
2021/07/28 11:10:57;;;;;;;17.20;6.90;;;;;;;34.19;40.10;99189.77;1802930;77;21573;-78
2021/07/28 11:13:33;;;;;;;12.90;7.78;;;;;;;34.17;40.95;99188.83;1817655;77;21000;-78
2021/07/28 11:16:06;;;;;;;14.35;7.10;;;;;;;34.21;40.46;99182.95;1834780;78;21523;-78
2021/07/28 11:18:43;;;;;;;12.13;6.92;;;;;;;34.27;41.43;99180.38;1837349;78;21015;-77
2021/07/28 11:21:32;;;;;;;14.60;7.05;;;;;;;34.43;40.98;99184.23;1837511;78;20920;-76
2021/07/28 11:24:12;;;;;;;14.95;7.45;;;;;;;34.56;41.49;99179.70;1832630;78;21032;-81
2021/07/28 11:26:48;;;;;;;18.23;6.90;;;;;;;34.80;41.81;99181.67;1803222;78;20922;-79
2021/07/28 11:29:20;;;;;;;17.55;6.28;;;;;;;35.02;40.01;99174.34;1833832;78;20950;-78
2021/07/28 11:31:50;;;;;;;12.65;6.50;;;;;;;35.06;37.89;99174.14;1819327;77;20928;-79